createdAt,value
2022-09-07T00:02:32.445Z,18.33
2022-09-07T00:05:34.314Z,18.22
2022-09-07T00:08:38.150Z,18.05
2022-09-07T00:11:39.804Z,18.20
2022-09-07T00:14:41.437Z,18.32
2022-09-07T00:17:43.207Z,18.30
2022-09-07T00:20:45.189Z,18.38
2022-09-07T00:23:48.538Z,18.45
2022-09-07T00:26:50.337Z,18.56
2022-09-07T00:29:51.986Z,18.59
2022-09-07T00:32:53.738Z,18.65
2022-09-07T00:35:55.558Z,18.41
2022-09-07T00:38:58.649Z,18.43
2022-09-07T00:42:00.656Z,18.47
2022-09-07T00:45:07.540Z,18.49
2022-09-07T00:48:11.354Z,18.49
2022-09-07T00:51:15.066Z,18.40
2022-09-07T00:54:19.340Z,18.42
2022-09-07T00:57:21.087Z,18.47
2022-09-07T01:00:22.792Z,18.44
2022-09-07T01:03:26.100Z,18.47
2022-09-07T01:06:29.500Z,18.40
2022-09-07T01:09:32.737Z,18.44
2022-09-07T01:12:34.458Z,18.37
2022-09-07T01:15:42.344Z,18.22
2022-09-07T01:18:52.010Z,18.18
2022-09-07T01:22:00.268Z,18.16
2022-09-07T01:25:09.267Z,17.92
2022-09-07T01:28:15.877Z,17.91
2022-09-07T01:31:21.710Z,18.00
2022-09-07T01:34:24.970Z,18.05
2022-09-07T01:37:32.187Z,18.01
2022-09-07T01:40:38.423Z,17.74
2022-09-07T01:43:43.474Z,17.50
2022-09-07T01:46:49.797Z,17.50
2022-09-07T01:49:54.013Z,17.37
2022-09-07T01:52:59.080Z,17.36
2022-09-07T01:56:03.513Z,16.89
2022-09-07T01:59:09.071Z,16.57
2022-09-07T02:02:13.267Z,16.38
2022-09-07T02:05:17.353Z,16.19
2022-09-07T02:08:21.679Z,16.08
2022-09-07T02:11:25.326Z,16.09
2022-09-07T02:14:31.220Z,16.45
2022-09-07T02:17:33.853Z,16.28
2022-09-07T02:20:37.720Z,16.11
2022-09-07T02:23:40.955Z,16.25
2022-09-07T02:26:45.878Z,16.25
2022-09-07T02:29:48.929Z,16.44
2022-09-07T02:32:50.694Z,16.70
2022-09-07T02:35:52.405Z,16.83
2022-09-07T02:38:54.328Z,17.03
2022-09-07T02:41:56.075Z,17.13
2022-09-07T02:44:59.605Z,17.00
2022-09-07T02:48:09.441Z,17.02
2022-09-07T02:51:15.087Z,17.11
2022-09-07T02:54:26.997Z,17.10
2022-09-07T02:57:33.692Z,17.07
2022-09-07T03:00:40.671Z,17.13
2022-09-07T03:03:46.412Z,17.20
2022-09-07T03:06:50.047Z,17.20
2022-09-07T03:09:53.698Z,17.23
2022-09-07T03:12:55.469Z,17.16
2022-09-07T03:15:58.655Z,17.18
2022-09-07T03:19:00.390Z,17.17
2022-09-07T03:22:02.017Z,17.25
2022-09-07T03:25:04.544Z,17.27
2022-09-07T03:28:08.814Z,17.33
2022-09-07T03:31:12.050Z,17.36
2022-09-07T03:34:13.945Z,17.35
2022-09-07T03:37:15.788Z,17.16
2022-09-07T03:40:17.668Z,17.06
2022-09-07T03:43:19.322Z,17.08
2022-09-07T03:46:22.746Z,17.20
2022-09-07T03:49:24.501Z,17.23
2022-09-07T03:52:26.172Z,17.22
2022-09-07T03:55:27.819Z,17.24
2022-09-07T03:58:30.176Z,17.20
2022-09-07T04:01:33.316Z,17.19
2022-09-07T04:04:35.045Z,17.24
2022-09-07T04:07:36.704Z,17.24
2022-09-07T04:10:38.385Z,17.20
2022-09-07T04:13:40.417Z,17.25
2022-09-07T04:16:43.529Z,17.20
2022-09-07T04:19:45.219Z,17.18
2022-09-07T04:22:51.395Z,17.18
2022-09-07T04:25:55.342Z,17.16
2022-09-07T04:28:57.165Z,17.22
2022-09-07T04:32:00.240Z,17.21
2022-09-07T04:35:02.095Z,17.15
2022-09-07T04:38:03.886Z,17.14
2022-09-07T04:41:06.730Z,17.22
2022-09-07T04:44:13.642Z,17.16
2022-09-07T04:47:19.384Z,17.19
2022-09-07T04:50:21.045Z,17.20
2022-09-07T04:53:22.711Z,17.28
2022-09-07T04:56:24.455Z,17.23
2022-09-07T04:59:26.190Z,17.24
2022-09-07T05:02:29.264Z,17.07
2022-09-07T05:05:31.014Z,16.98
2022-09-07T05:08:36.075Z,16.90
2022-09-07T05:11:37.753Z,16.79
2022-09-07T05:14:39.439Z,16.82
2022-09-07T05:17:42.727Z,16.73
2022-09-07T05:20:44.426Z,16.65
2022-09-07T05:23:49.030Z,16.79
2022-09-07T05:26:50.724Z,16.86
2022-09-07T05:30:03.716Z,17.02
2022-09-07T05:33:08.030Z,17.15
2022-09-07T05:36:09.772Z,17.25
2022-09-07T05:39:11.690Z,17.24
2022-09-07T05:42:13.391Z,17.35
2022-09-07T05:45:15.133Z,17.40
2022-09-07T05:48:18.212Z,17.46
2022-09-07T05:51:19.930Z,17.51
2022-09-07T05:54:21.621Z,17.55
2022-09-07T05:57:23.311Z,17.51
2022-09-07T06:00:25.093Z,17.61
2022-09-07T06:03:28.213Z,17.58
2022-09-07T06:06:29.983Z,17.64
2022-09-07T06:09:31.706Z,17.65
2022-09-07T06:12:33.542Z,17.68
2022-09-07T06:15:35.236Z,17.65
2022-09-07T06:18:39.530Z,17.68
2022-09-07T06:21:41.316Z,17.78
2022-09-07T06:24:42.996Z,17.79
2022-09-07T06:27:47.291Z,17.75
2022-09-07T06:30:48.976Z,17.83
2022-09-07T06:33:52.296Z,17.85
2022-09-07T06:36:53.990Z,17.90
2022-09-07T06:39:55.833Z,18.01
2022-09-07T06:42:57.621Z,18.08
2022-09-07T06:49:22.497Z,18.17
2022-09-07T06:52:24.236Z,18.29
2022-09-07T06:55:26.014Z,18.34
2022-09-07T06:58:28.194Z,18.40
2022-09-07T07:01:29.955Z,18.50
2022-09-07T07:04:37.662Z,18.61
2022-09-07T07:07:41.394Z,18.61
2022-09-07T07:10:43.041Z,18.68
2022-09-07T07:13:44.658Z,18.78
2022-09-07T07:16:46.363Z,18.79
2022-09-07T07:19:49.457Z,19.00
2022-09-07T07:22:51.104Z,19.04
2022-09-07T07:25:52.774Z,19.09
2022-09-07T07:29:03.544Z,19.13
2022-09-07T07:32:05.975Z,19.25
2022-09-07T07:35:09.720Z,19.40
2022-09-07T07:48:16.169Z,19.60
2022-09-07T07:51:19.516Z,19.57
2022-09-07T07:54:21.280Z,19.50
2022-09-07T07:57:22.936Z,19.65
2022-09-07T08:00:50.837Z,19.67
2022-09-07T08:03:46.632Z,19.75
2022-09-07T08:06:49.628Z,19.71
2022-09-07T08:09:51.216Z,19.70
2022-09-07T08:12:53.302Z,19.76
2022-09-07T08:15:57.665Z,19.85
2022-09-07T08:18:59.439Z,19.88
2022-09-07T08:22:02.484Z,19.89
2022-09-07T08:25:04.874Z,19.98
2022-09-07T08:28:06.670Z,20.00
2022-09-07T08:31:09.258Z,20.08
2022-09-07T08:34:13.390Z,20.19
2022-09-07T08:37:16.388Z,20.22
2022-09-07T08:40:18.586Z,20.35
2022-09-07T08:43:28.871Z,20.59
2022-09-07T08:46:32.627Z,20.74
2022-09-07T08:49:42.091Z,20.77
2022-09-07T08:52:47.976Z,20.85
2022-09-07T08:55:51.053Z,21.05
2022-09-07T08:58:53.523Z,21.12
2022-09-07T09:05:21.711Z,21.38
2022-09-07T09:08:31.263Z,21.37
2022-09-07T09:11:39.420Z,21.40
2022-09-07T09:14:48.054Z,21.59
2022-09-07T09:17:55.491Z,21.61
2022-09-07T09:20:57.979Z,21.63
2022-09-07T09:24:05.838Z,21.72
2022-09-07T09:27:09.470Z,21.57
2022-09-07T09:30:12.823Z,21.52
2022-09-07T09:33:16.873Z,21.46
2022-09-07T09:36:24.202Z,21.43
2022-09-07T09:39:29.131Z,21.55
2022-09-07T09:42:32.740Z,21.75
2022-09-07T09:48:58.122Z,21.97
2022-09-07T09:52:31.777Z,22.10
2022-09-07T09:55:34.453Z,22.17
2022-09-07T10:05:26.742Z,22.50
2022-09-07T10:08:29.807Z,22.44
2022-09-07T10:15:08.104Z,22.62
2022-09-07T10:18:17.943Z,22.55
2022-09-07T10:21:24.360Z,22.74
2022-09-07T10:24:26.906Z,22.80
2022-09-07T10:27:31.572Z,22.78
2022-09-07T10:30:39.307Z,22.70
2022-09-07T10:34:25.760Z,22.68
2022-09-07T10:37:09.451Z,22.64
2022-09-07T10:40:20.719Z,22.76
2022-09-07T10:43:28.333Z,22.72
2022-09-07T10:53:41.232Z,22.83
2022-09-07T10:56:48.719Z,23.01
2022-09-07T11:00:10.914Z,23.29
2022-09-07T11:03:30.547Z,23.20
2022-09-07T11:06:35.059Z,23.23
2022-09-07T11:09:46.459Z,23.42
2022-09-07T11:12:50.845Z,23.32
2022-09-07T11:15:56.519Z,23.44
2022-09-07T11:22:27.721Z,23.59
2022-09-07T11:25:33.573Z,23.59
2022-09-07T11:28:41.420Z,23.67
2022-09-07T11:31:45.813Z,23.63
2022-09-07T11:34:52.132Z,23.62
2022-09-07T11:37:55.254Z,23.71
2022-09-07T11:41:05.193Z,23.84
2022-09-07T11:44:11.824Z,23.83
2022-09-07T11:47:19.801Z,23.96
2022-09-07T11:50:22.399Z,24.03
2022-09-07T11:53:25.387Z,24.05
2022-09-07T11:56:29.617Z,24.17
2022-09-07T11:59:42.419Z,24.05
2022-09-07T12:03:06.941Z,24.05
2022-09-07T12:06:21.502Z,24.19
2022-09-07T12:09:32.591Z,24.29
2022-09-07T12:12:43.956Z,24.13
2022-09-07T12:15:49.117Z,24.21
2022-09-07T12:19:10.912Z,24.13
2022-09-07T12:22:19.325Z,24.23
2022-09-07T12:25:21.090Z,24.19
2022-09-07T12:28:37.557Z,24.37
2022-09-07T12:31:57.266Z,24.36
2022-09-07T12:35:01.094Z,24.49
2022-09-07T12:38:03.685Z,24.59
2022-09-07T12:41:20.773Z,24.61
2022-09-07T12:44:28.547Z,24.64
2022-09-07T12:47:30.955Z,24.81
2022-09-07T12:50:39.151Z,24.94
2022-09-07T12:53:44.885Z,25.03
2022-09-07T12:57:29.213Z,25.15
2022-09-07T13:00:17.437Z,25.54
2022-09-07T13:07:08.936Z,25.41
2022-09-07T13:10:23.499Z,25.41
2022-09-07T13:20:21.047Z,25.35
2022-09-07T13:23:25.593Z,25.21
2022-09-07T13:26:49.336Z,25.08
2022-09-07T13:29:55.390Z,25.19
2022-09-07T13:33:15.590Z,25.10
2022-09-07T13:36:22.070Z,25.15
2022-09-07T13:39:25.550Z,25.17
2022-09-07T13:42:29.283Z,25.36
2022-09-07T13:45:34.721Z,25.42
2022-09-07T13:48:36.813Z,25.67
2022-09-07T13:51:42.536Z,25.65
2022-09-07T13:54:50.650Z,25.72
2022-09-07T13:57:58.941Z,25.72
2022-09-07T14:01:02.591Z,25.66
2022-09-07T14:04:04.345Z,25.51
2022-09-07T14:07:06.893Z,25.42
2022-09-07T14:10:14.141Z,25.22
2022-09-07T14:13:15.750Z,25.28
2022-09-07T14:16:17.429Z,25.39
2022-09-07T14:19:20.700Z,25.46
2022-09-07T14:22:23.075Z,25.46
2022-09-07T14:25:26.275Z,25.49
2022-09-07T14:28:29.446Z,25.43
2022-09-07T14:31:31.359Z,25.41
2022-09-07T14:34:34.121Z,25.42
2022-09-07T14:37:36.786Z,25.40
2022-09-07T14:40:40.209Z,25.37
2022-09-07T14:43:51.010Z,25.25
2022-09-07T14:46:56.539Z,25.36
2022-09-07T14:50:01.025Z,25.47
2022-09-07T14:56:30.076Z,25.44
2022-09-07T14:59:41.755Z,25.34
2022-09-07T15:02:44.950Z,25.41
2022-09-07T15:05:47.106Z,25.38
2022-09-07T15:08:49.009Z,25.15
2022-09-07T15:12:01.790Z,25.29
2022-09-07T15:15:10.428Z,25.20
2022-09-07T15:18:27.009Z,25.41
2022-09-07T15:21:29.696Z,25.51
2022-09-07T15:24:31.345Z,25.45
2022-09-07T15:27:34.369Z,25.54
2022-09-07T15:30:36.023Z,25.70
2022-09-07T15:33:37.687Z,25.83
2022-09-07T15:36:40.909Z,26.00
2022-09-07T15:39:43.741Z,26.07
2022-09-07T15:43:08.553Z,26.11
2022-09-07T15:46:08.913Z,25.86
2022-09-07T15:49:12.484Z,25.98
2022-09-07T15:52:14.287Z,26.35
2022-09-07T15:55:17.515Z,26.67
2022-09-07T15:58:21.059Z,26.77
2022-09-07T16:04:46.875Z,27.05
2022-09-07T16:11:18.361Z,27.40
2022-09-07T16:14:21.937Z,27.57
2022-09-07T16:17:27.309Z,27.89
2022-09-07T16:20:36.470Z,28.17
2022-09-07T16:23:38.557Z,28.34
2022-09-07T16:26:40.230Z,28.28
2022-09-07T16:29:43.584Z,27.96
2022-09-07T16:32:45.414Z,28.07
2022-09-07T16:35:55.692Z,28.34
2022-09-07T16:39:00.145Z,28.38
2022-09-07T16:42:02.224Z,28.61
2022-09-07T16:48:27.455Z,28.73
2022-09-07T16:51:29.138Z,28.59
2022-09-07T16:54:32.411Z,28.32
2022-09-07T16:58:35.181Z,27.90
2022-09-07T17:00:57.383Z,27.42
2022-09-07T17:03:59.532Z,27.02
2022-09-07T17:07:01.277Z,26.56
2022-09-07T17:10:03.002Z,26.37
2022-09-07T17:13:09.182Z,26.02
2022-09-07T17:16:13.691Z,25.82
2022-09-07T17:19:31.123Z,25.63
2022-09-07T17:22:33.043Z,25.31
2022-09-07T17:25:34.673Z,25.30
2022-09-07T17:28:36.831Z,25.02
2022-09-07T17:35:01.778Z,25.02
2022-09-07T17:39:14.358Z,24.97
2022-09-07T17:41:25.969Z,24.89
2022-09-07T17:44:29.824Z,24.76
2022-09-07T17:47:36.385Z,24.75
2022-09-07T17:50:38.211Z,24.72
2022-09-07T17:53:40.201Z,24.73
2022-09-07T17:56:42.425Z,24.68
2022-09-07T18:03:07.522Z,24.32
2022-09-07T18:06:09.571Z,24.36
2022-09-07T18:09:11.784Z,24.31
2022-09-07T18:12:13.744Z,24.13
2022-09-07T18:15:16.174Z,24.17
2022-09-07T18:18:19.636Z,24.00
2022-09-07T18:21:22.688Z,23.93
2022-09-07T18:24:25.035Z,24.00
2022-09-07T18:27:27.023Z,24.04
2022-09-07T18:30:30.405Z,23.88
2022-09-07T18:33:34.027Z,23.76
2022-09-07T18:36:36.023Z,23.77
2022-09-07T18:39:38.058Z,23.72
2022-09-07T18:42:40.547Z,23.57
2022-09-07T18:45:42.764Z,23.47
2022-09-07T18:48:46.516Z,23.52
2022-09-07T18:55:10.296Z,23.56
2022-09-07T18:58:12.449Z,23.54
2022-09-07T19:01:15.586Z,23.48
2022-09-07T19:04:21.627Z,23.40
2022-09-07T19:07:27.523Z,23.44
2022-09-07T19:10:33.782Z,23.24
2022-09-07T19:13:36.275Z,23.10
2022-09-07T19:16:38.904Z,23.17
2022-09-07T19:19:43.236Z,23.21
2022-09-07T19:22:45.234Z,23.22
2022-09-07T19:25:47.252Z,23.15
2022-09-07T19:28:53.196Z,23.03
2022-09-07T19:31:55.285Z,23.01
2022-09-07T19:34:58.757Z,22.95
2022-09-07T19:38:00.829Z,22.92
2022-09-07T19:41:03.426Z,22.92
2022-09-07T19:44:06.363Z,22.92
2022-09-07T19:47:08.467Z,22.93
2022-09-07T19:50:11.942Z,22.96
2022-09-07T19:53:16.452Z,22.85
2022-09-07T19:56:19.448Z,22.75
2022-09-07T19:59:21.653Z,22.62
2022-09-07T20:02:23.373Z,22.64
2022-09-07T20:05:26.880Z,22.55
2022-09-07T20:08:29.778Z,22.59
2022-09-07T20:11:32.406Z,22.65
2022-09-07T20:14:35.019Z,22.65
2022-09-07T20:17:37.076Z,22.64
2022-09-07T20:20:40.447Z,22.49
2022-09-07T20:23:42.839Z,22.39
2022-09-07T20:26:44.880Z,22.35
2022-09-07T20:29:46.561Z,22.43
2022-09-07T20:32:48.206Z,22.34
2022-09-07T20:35:51.507Z,22.38
2022-09-07T20:38:54.266Z,22.33
2022-09-07T20:41:55.901Z,22.21
2022-09-07T20:44:57.717Z,22.22
2022-09-07T20:47:59.318Z,22.18
2022-09-07T20:51:02.306Z,22.22
2022-09-07T20:54:03.971Z,22.15
2022-09-07T20:57:05.601Z,21.98
2022-09-07T21:00:07.687Z,22.02
2022-09-07T21:03:09.721Z,21.87
2022-09-07T21:06:12.959Z,21.92
2022-09-07T21:09:14.573Z,21.99
2022-09-07T21:12:16.921Z,22.09
2022-09-07T21:15:18.590Z,22.02
2022-09-07T21:18:20.208Z,22.06
2022-09-07T21:21:23.574Z,22.01
2022-09-07T21:24:25.300Z,22.02
2022-09-07T21:27:26.878Z,22.02
2022-09-07T21:30:28.448Z,21.98
2022-09-07T21:33:30.783Z,22.00
2022-09-07T21:36:33.749Z,21.93
2022-09-07T21:39:35.410Z,21.98
2022-09-07T21:42:37.130Z,21.85
2022-09-07T21:45:38.741Z,21.70
2022-09-07T21:48:40.360Z,21.81
2022-09-07T21:51:43.301Z,21.72
2022-09-07T21:54:44.902Z,21.74
2022-09-07T21:57:46.494Z,21.61
2022-09-07T22:00:48.178Z,21.49
2022-09-07T22:03:53.121Z,21.40
2022-09-07T22:06:56.072Z,21.42
2022-09-07T22:09:57.709Z,21.54
2022-09-07T22:12:59.292Z,21.50
2022-09-07T22:16:01.114Z,21.46
2022-09-07T22:19:02.784Z,21.45
2022-09-07T22:22:05.806Z,21.50
2022-09-07T22:25:07.719Z,21.31
2022-09-07T22:28:09.348Z,21.33
2022-09-07T22:31:11.962Z,21.39
2022-09-07T22:34:13.560Z,21.30
2022-09-07T22:37:16.551Z,21.38
2022-09-07T22:40:18.121Z,21.37
2022-09-07T22:43:19.757Z,21.40
2022-09-07T22:46:22.523Z,21.36
2022-09-07T22:49:24.202Z,21.37
2022-09-07T22:52:27.173Z,21.35
2022-09-07T22:55:28.752Z,21.38
2022-09-07T22:58:30.336Z,21.44
2022-09-07T23:01:32.349Z,21.45
2022-09-07T23:04:34.047Z,21.45
2022-09-07T23:07:37.189Z,21.42
2022-09-07T23:10:38.769Z,21.42
2022-09-07T23:13:40.353Z,21.43
2022-09-07T23:16:42.036Z,21.39
2022-09-07T23:19:43.656Z,21.14
2022-09-07T23:22:46.617Z,21.21
2022-09-07T23:25:48.415Z,21.00
2022-09-07T23:28:53.748Z,20.45
2022-09-07T23:31:55.364Z,20.53
2022-09-07T23:34:56.988Z,20.47
2022-09-07T23:38:00.032Z,20.42
2022-09-07T23:41:01.882Z,20.32
2022-09-07T23:44:03.794Z,20.53
2022-09-07T23:47:05.470Z,20.67
2022-09-07T23:50:07.423Z,20.77
2022-09-07T23:53:10.463Z,20.83
2022-09-07T23:56:12.135Z,20.80
2022-09-07T23:59:13.754Z,20.88
